createdAt,value
2024-05-09T00:00:59.485Z,55.85
2024-05-09T00:03:30.100Z,59.28
2024-05-09T00:06:00.951Z,52.80
2024-05-09T00:08:31.645Z,60.03
2024-05-09T00:11:03.150Z,56.65
2024-05-09T00:13:33.731Z,56.70
2024-05-09T00:16:05.648Z,54.35
2024-05-09T00:18:36.332Z,54.38
2024-05-09T00:21:10.310Z,61.53
2024-05-09T00:23:40.874Z,53.25
2024-05-09T00:26:14.615Z,61.50
2024-05-09T00:28:45.192Z,55.63
2024-05-09T00:31:15.754Z,59.88
2024-05-09T00:33:46.432Z,56.00
2024-05-09T00:36:19.977Z,56.97
2024-05-09T00:38:50.553Z,57.28
2024-05-09T00:41:21.215Z,56.80
2024-05-09T00:43:51.756Z,58.88
2024-05-09T00:46:23.400Z,60.67
2024-05-09T00:48:54.086Z,57.78
2024-05-09T00:51:26.472Z,60.40
2024-05-09T00:53:57.319Z,59.00
2024-05-09T00:56:29.890Z,60.08
2024-05-09T00:59:00.600Z,63.08
2024-05-09T01:01:33.550Z,59.28
2024-05-09T01:04:04.296Z,58.35
2024-05-09T01:06:35.055Z,53.08
2024-05-09T01:09:08.479Z,55.75
2024-05-09T01:11:44.149Z,52.65
2024-05-09T01:14:16.733Z,50.38
2024-05-09T01:16:51.020Z,53.97
2024-05-09T01:19:31.540Z,52.95
2024-05-09T01:22:02.701Z,50.10
2024-05-09T01:24:33.316Z,54.85
2024-05-09T01:27:04.694Z,51.97
2024-05-09T01:29:35.265Z,53.22
2024-05-09T01:32:07.724Z,56.42
2024-05-09T01:34:38.287Z,51.50
2024-05-09T01:37:08.873Z,51.97
2024-05-09T01:39:39.419Z,54.33
2024-05-09T01:42:10.035Z,48.95
2024-05-09T01:44:40.669Z,46.75
2024-05-09T01:47:12.169Z,52.90
2024-05-09T01:49:43.780Z,52.97
2024-05-09T01:52:14.445Z,53.33
2024-05-09T01:54:44.998Z,49.63
2024-05-09T01:57:17.925Z,52.58
2024-05-09T01:59:48.383Z,53.78
2024-05-09T02:02:22.223Z,60.00
2024-05-09T02:04:52.898Z,63.13
2024-05-09T02:07:23.637Z,60.67
2024-05-09T02:09:56.934Z,59.80
2024-05-09T02:12:27.636Z,60.97
2024-05-09T02:14:59.614Z,57.28
2024-05-09T02:17:32.103Z,56.85
2024-05-09T02:20:02.881Z,58.08
2024-05-09T02:22:36.692Z,57.25
2024-05-09T02:25:07.347Z,54.55
2024-05-09T02:27:39.286Z,52.95
2024-05-09T02:30:18.731Z,59.30
2024-05-09T02:32:58.520Z,54.47
2024-05-09T02:35:29.656Z,52.33
2024-05-09T02:38:01.320Z,52.72
2024-05-09T02:40:37.018Z,53.15
2024-05-09T02:43:19.976Z,51.78
2024-05-09T02:45:50.452Z,52.78
2024-05-09T02:48:22.162Z,49.30
2024-05-09T02:50:54.215Z,47.30
2024-05-09T02:53:24.774Z,47.92
2024-05-09T02:55:55.343Z,42.92
2024-05-09T02:58:32.096Z,50.70
2024-05-09T03:01:02.683Z,49.55
2024-05-09T03:03:33.594Z,44.08
2024-05-09T03:06:05.449Z,41.80
2024-05-09T03:08:36.172Z,40.15
2024-05-09T03:11:06.926Z,46.22
2024-05-09T03:13:37.627Z,44.97
2024-05-09T03:16:08.882Z,51.03
2024-05-09T03:18:44.563Z,54.05
2024-05-09T03:21:15.151Z,51.30
2024-05-09T03:23:46.391Z,51.15
2024-05-09T03:26:18.832Z,53.60
2024-05-09T03:28:49.659Z,53.63
2024-05-09T03:31:24.849Z,52.30
2024-05-09T03:33:56.175Z,55.08
2024-05-09T03:36:26.691Z,54.88
2024-05-09T03:38:59.618Z,52.05
2024-05-09T03:41:30.260Z,56.40
2024-05-09T03:44:06.763Z,55.42
2024-05-09T03:46:44.124Z,52.13
2024-05-09T03:49:15.744Z,55.00
2024-05-09T03:51:46.453Z,57.10
2024-05-09T03:54:18.038Z,55.75
2024-05-09T03:56:48.620Z,64.18
2024-05-09T03:59:20.068Z,60.60
2024-05-09T04:01:51.246Z,62.60
2024-05-09T04:04:31.479Z,60.17
2024-05-09T04:07:01.966Z,63.38
2024-05-09T04:09:33.539Z,61.55
2024-05-09T04:12:04.202Z,60.97
2024-05-09T04:14:38.811Z,63.42
2024-05-09T04:17:14.877Z,60.70
2024-05-09T04:19:49.574Z,62.22
2024-05-09T04:22:20.208Z,61.40
2024-05-09T04:24:50.969Z,62.38
2024-05-09T04:27:21.658Z,62.38
2024-05-09T04:29:52.800Z,61.30
2024-05-09T04:32:23.440Z,65.35
2024-05-09T04:34:54.274Z,64.00
2024-05-09T04:37:25.213Z,64.45
2024-05-09T04:40:01.171Z,64.32
2024-05-09T04:42:31.950Z,63.33
2024-05-09T04:45:02.566Z,65.35
2024-05-09T04:47:33.099Z,60.95
2024-05-09T04:50:08.815Z,62.38
2024-05-09T04:52:42.030Z,53.03
2024-05-09T04:55:12.941Z,54.10
2024-05-09T04:57:43.435Z,55.08
2024-05-09T05:00:21.750Z,55.83
2024-05-09T05:02:59.464Z,56.13
2024-05-09T05:05:34.877Z,58.42
2024-05-09T05:08:05.592Z,59.28
2024-05-09T05:10:45.622Z,63.38
2024-05-09T05:13:26.109Z,59.50
2024-05-09T05:15:59.741Z,55.28
2024-05-09T05:18:32.423Z,60.35
2024-05-09T05:21:03.484Z,51.53
2024-05-09T05:23:34.215Z,44.60
2024-05-09T05:26:04.772Z,42.67
2024-05-09T05:28:35.427Z,38.00
2024-05-09T05:31:09.944Z,30.80
2024-05-09T05:33:40.772Z,28.67
2024-05-09T05:36:12.387Z,26.33
2024-05-09T05:38:43.066Z,27.15
2024-05-09T05:41:13.782Z,26.35
2024-05-09T05:43:44.547Z,29.35
2024-05-09T05:46:15.191Z,26.15
2024-05-09T05:48:45.946Z,24.80
2024-05-09T05:51:16.683Z,26.75
2024-05-09T05:53:47.352Z,24.60
2024-05-09T05:56:23.298Z,24.25
2024-05-09T05:58:53.915Z,23.60
2024-05-09T06:01:24.487Z,26.05
2024-05-09T06:03:55.829Z,24.25
2024-05-09T06:06:27.268Z,25.20
2024-05-09T06:08:58.215Z,24.17
2024-05-09T06:11:28.961Z,28.38
2024-05-09T06:14:03.568Z,24.63
2024-05-09T06:16:34.871Z,26.70
2024-05-09T06:19:05.502Z,22.83
2024-05-09T06:21:37.005Z,24.23
2024-05-09T06:24:07.926Z,24.23
2024-05-09T06:26:39.342Z,24.42
2024-05-09T06:29:10.357Z,24.02
2024-05-09T06:31:47.873Z,23.08
2024-05-09T06:34:21.776Z,24.63
2024-05-09T06:36:52.436Z,25.13
2024-05-09T06:39:22.949Z,27.58
2024-05-09T06:41:54.041Z,28.27
2024-05-09T06:44:29.061Z,29.50
2024-05-09T06:47:00.567Z,27.27
2024-05-09T06:49:32.125Z,25.73
2024-05-09T06:52:02.899Z,23.15
2024-05-09T06:54:33.498Z,24.52
2024-05-09T06:57:04.270Z,27.35
2024-05-09T06:59:34.989Z,28.75
2024-05-09T07:02:09.990Z,26.27
2024-05-09T07:04:40.695Z,31.60
2024-05-09T07:07:11.597Z,28.17
2024-05-09T07:09:42.047Z,28.55
2024-05-09T07:12:17.031Z,27.88
2024-05-09T07:14:49.385Z,19.17
2024-05-09T07:17:22.150Z,22.25
2024-05-09T07:19:53.723Z,19.83
2024-05-09T07:22:31.168Z,18.63
2024-05-09T07:25:01.842Z,19.85
2024-05-09T07:27:32.402Z,19.52
2024-05-09T07:30:05.422Z,20.48
2024-05-09T07:32:36.191Z,22.02
2024-05-09T07:35:06.846Z,20.67
2024-05-09T07:37:38.165Z,20.65
2024-05-09T07:40:12.074Z,16.08
2024-05-09T07:42:45.358Z,16.55
2024-05-09T07:45:38.937Z,14.55
2024-05-09T07:53:37.948Z,14.00
2024-05-09T07:56:08.680Z,14.40
2024-05-09T07:58:40.231Z,13.73
2024-05-09T08:01:10.846Z,17.60
2024-05-09T08:03:41.867Z,14.68
2024-05-09T08:06:12.562Z,16.75
2024-05-09T08:08:43.293Z,17.80
2024-05-09T08:11:13.939Z,16.95
2024-05-09T08:13:47.812Z,16.85
2024-05-09T08:16:19.606Z,17.73
2024-05-09T08:18:55.450Z,14.13
2024-05-09T08:21:27.018Z,14.10
2024-05-09T08:23:58.599Z,16.33
2024-05-09T08:26:29.324Z,16.73
2024-05-09T08:29:00.020Z,16.00
2024-05-09T08:31:30.581Z,16.10
2024-05-09T08:34:03.788Z,14.88
2024-05-09T08:36:34.729Z,15.05
2024-05-09T08:39:11.104Z,17.73
2024-05-09T08:41:47.811Z,18.98
2024-05-09T08:44:23.621Z,19.08
2024-05-09T08:46:58.912Z,17.75
2024-05-09T08:49:37.667Z,18.15
2024-05-09T08:52:16.510Z,16.77
2024-05-09T08:54:52.302Z,24.47
2024-05-09T08:57:24.911Z,22.77
2024-05-09T08:59:57.141Z,22.20
2024-05-09T09:02:28.212Z,22.15
2024-05-09T09:05:21.819Z,23.20
2024-05-09T09:07:53.840Z,21.08
2024-05-09T09:10:31.628Z,23.63
2024-05-09T09:13:06.613Z,23.38
2024-05-09T09:15:44.384Z,24.45
2024-05-09T09:18:18.502Z,24.75
2024-05-09T09:20:58.423Z,26.05
2024-05-09T09:23:32.226Z,24.02
2024-05-09T09:26:03.408Z,20.77
2024-05-09T09:28:38.628Z,20.65
2024-05-09T09:31:11.513Z,19.48
2024-05-09T09:33:45.967Z,20.70
2024-05-09T09:36:16.691Z,20.48
2024-05-09T09:38:48.937Z,21.23
2024-05-09T09:41:22.313Z,23.52
2024-05-09T09:43:53.456Z,20.48
2024-05-09T09:46:30.179Z,17.80
2024-05-09T09:49:03.539Z,19.73
2024-05-09T09:51:36.544Z,18.05
2024-05-09T09:54:08.693Z,19.90
2024-05-09T09:56:43.283Z,23.63
2024-05-09T09:59:16.573Z,23.27
2024-05-09T10:01:50.549Z,23.08
2024-05-09T10:04:21.857Z,25.63
2024-05-09T10:07:00.707Z,24.90
2024-05-09T10:09:31.775Z,23.50
2024-05-09T10:12:19.616Z,22.85
2024-05-09T10:14:59.773Z,24.13
2024-05-09T10:17:30.740Z,25.17
2024-05-09T10:20:18.454Z,24.95
2024-05-09T10:22:55.908Z,25.88
2024-05-09T10:25:29.822Z,27.23
2024-05-09T10:28:06.986Z,26.67
2024-05-09T10:30:38.170Z,25.60
2024-05-09T10:33:13.615Z,25.33
2024-05-09T10:35:54.296Z,27.20
2024-05-09T10:38:24.972Z,23.90
2024-05-09T10:41:01.388Z,23.90
2024-05-09T10:43:34.430Z,28.83
2024-05-09T10:46:05.085Z,24.45
2024-05-09T10:48:37.972Z,24.27
2024-05-09T10:51:08.777Z,23.90
2024-05-09T10:53:51.117Z,26.63
2024-05-09T10:56:21.755Z,24.67
2024-05-09T10:58:55.361Z,23.58
2024-05-09T11:01:26.548Z,23.23
2024-05-09T11:04:01.542Z,23.65
2024-05-09T11:06:32.584Z,23.75
2024-05-09T11:09:04.009Z,26.65
2024-05-09T11:11:35.679Z,27.30
2024-05-09T11:14:17.905Z,29.92
2024-05-09T11:17:02.427Z,29.92
2024-05-09T11:19:55.249Z,31.48
2024-05-09T11:22:29.844Z,32.85
2024-05-09T11:25:01.230Z,30.88
2024-05-09T11:27:31.791Z,32.42
2024-05-09T11:30:04.495Z,33.10
2024-05-09T11:32:39.956Z,35.60
2024-05-09T11:35:11.609Z,34.78
2024-05-09T11:37:47.584Z,34.97
2024-05-09T11:40:28.267Z,36.33
2024-05-09T11:43:02.995Z,34.95
2024-05-09T11:45:33.737Z,34.22
2024-05-09T11:48:06.211Z,35.67
2024-05-09T11:50:40.850Z,36.10
2024-05-09T11:53:13.889Z,33.47
2024-05-09T11:55:48.987Z,32.88
2024-05-09T11:58:19.750Z,30.85
2024-05-09T12:00:51.201Z,28.83
2024-05-09T12:03:22.881Z,33.47
2024-05-09T12:05:55.411Z,31.27
2024-05-09T12:08:28.570Z,31.83
2024-05-09T12:10:59.391Z,35.05
2024-05-09T12:13:30.999Z,52.35
2024-05-09T12:16:02.390Z,47.92
2024-05-09T12:18:36.125Z,38.25
2024-05-09T12:21:07.038Z,39.00
2024-05-09T12:23:38.623Z,35.80
2024-05-09T12:26:10.163Z,50.10
2024-05-09T12:28:40.826Z,43.60
2024-05-09T12:31:12.280Z,43.33
2024-05-09T12:33:42.849Z,41.22
2024-05-09T12:36:14.282Z,39.65
2024-05-09T12:38:44.875Z,39.28
2024-05-09T12:41:16.735Z,39.85
2024-05-09T12:43:47.776Z,41.28
2024-05-09T12:46:18.530Z,40.50
2024-05-09T12:48:50.318Z,40.65
2024-05-09T12:51:21.446Z,43.70
2024-05-09T12:53:54.942Z,43.35
2024-05-09T12:56:28.243Z,40.78
2024-05-09T12:59:11.751Z,48.70
2024-05-09T13:01:43.361Z,40.40
2024-05-09T13:04:14.022Z,41.55
2024-05-09T13:06:47.408Z,39.22
2024-05-09T13:09:18.052Z,37.85
2024-05-09T13:11:49.915Z,43.13
2024-05-09T13:14:21.640Z,40.80
2024-05-09T13:16:56.254Z,41.17
2024-05-09T13:19:27.078Z,40.80
2024-05-09T13:21:58.058Z,41.00
2024-05-09T13:24:28.799Z,49.00
2024-05-09T13:26:59.536Z,49.92
2024-05-09T13:29:30.240Z,45.15
2024-05-09T13:32:00.906Z,43.70
2024-05-09T13:35:13.630Z,53.00
2024-05-09T13:37:48.216Z,53.58
2024-05-09T13:40:31.761Z,50.72
2024-05-09T13:43:07.891Z,47.30
2024-05-09T13:45:38.492Z,54.03
2024-05-09T13:48:14.137Z,52.80
2024-05-09T13:50:45.017Z,73.03
2024-05-09T13:53:15.672Z,54.95
2024-05-09T13:55:46.274Z,49.13
2024-05-09T13:58:16.977Z,45.63
2024-05-09T14:00:49.649Z,41.03
2024-05-09T14:03:21.813Z,43.50
2024-05-09T14:05:52.984Z,46.03
2024-05-09T14:08:26.996Z,43.05
2024-05-09T14:11:04.939Z,41.70
2024-05-09T14:13:39.799Z,49.47
2024-05-09T14:16:12.463Z,43.35
2024-05-09T14:18:46.841Z,42.70
2024-05-09T14:21:23.643Z,43.25
2024-05-09T14:23:57.662Z,38.97
2024-05-09T14:26:28.287Z,42.15
2024-05-09T14:28:58.876Z,45.15
2024-05-09T14:31:29.520Z,42.42
2024-05-09T14:34:04.734Z,46.58
2024-05-09T14:36:36.563Z,46.35
2024-05-09T14:39:08.821Z,48.85
2024-05-09T14:41:41.134Z,48.78
2024-05-09T14:44:14.728Z,52.80
2024-05-09T14:46:45.567Z,53.13
2024-05-09T14:49:19.354Z,50.13
2024-05-09T14:51:50.766Z,45.75
2024-05-09T14:54:21.304Z,44.42
2024-05-09T14:56:52.047Z,41.78
2024-05-09T14:59:23.462Z,48.58
2024-05-09T15:01:54.030Z,45.25
2024-05-09T15:04:27.690Z,45.35
2024-05-09T15:06:58.790Z,44.80
2024-05-09T15:09:30.260Z,42.90
2024-05-09T15:12:00.738Z,44.20
2024-05-09T15:14:37.788Z,41.78
2024-05-09T15:17:08.442Z,39.55
2024-05-09T15:19:42.484Z,39.78
2024-05-09T15:22:18.529Z,41.63
2024-05-09T15:24:50.128Z,41.92
2024-05-09T15:27:21.663Z,40.15
2024-05-09T15:29:52.152Z,41.15
2024-05-09T15:32:22.753Z,37.92
2024-05-09T15:34:53.336Z,39.67
2024-05-09T15:37:24.658Z,42.05
2024-05-09T15:39:56.313Z,40.17
2024-05-09T15:42:28.107Z,37.95
2024-05-09T15:44:58.617Z,39.58
2024-05-09T15:47:35.445Z,40.65
2024-05-09T15:50:14.754Z,38.25
2024-05-09T15:52:54.346Z,41.97
2024-05-09T15:55:26.899Z,41.25
2024-05-09T15:58:02.763Z,38.10
2024-05-09T16:00:39.477Z,34.65
2024-05-09T16:03:15.927Z,35.90
2024-05-09T16:05:48.324Z,36.45
2024-05-09T16:08:21.587Z,35.95
2024-05-09T16:10:52.394Z,36.65
2024-05-09T16:13:31.610Z,37.65
2024-05-09T16:16:08.990Z,39.30
2024-05-09T16:18:41.065Z,35.63
2024-05-09T16:21:15.314Z,34.55
2024-05-09T16:23:45.770Z,34.10
2024-05-09T16:26:19.404Z,34.42
2024-05-09T16:28:50.691Z,31.27
2024-05-09T16:31:21.219Z,32.17
2024-05-09T16:33:51.846Z,28.35
2024-05-09T16:36:23.351Z,30.55
2024-05-09T16:38:53.743Z,28.83
2024-05-09T16:41:26.514Z,27.98
2024-05-09T16:43:57.183Z,28.00
2024-05-09T16:46:30.163Z,27.63
2024-05-09T16:49:00.755Z,27.73
2024-05-09T16:51:31.293Z,27.75
2024-05-09T16:54:01.723Z,27.90
2024-05-09T16:56:33.078Z,28.40
2024-05-09T16:59:03.574Z,27.88
2024-05-09T17:01:37.650Z,29.30
2024-05-09T17:04:08.449Z,29.75
2024-05-09T17:06:39.195Z,29.20
2024-05-09T17:09:11.993Z,29.75
2024-05-09T17:11:48.233Z,29.73
2024-05-09T17:14:21.122Z,29.15
2024-05-09T17:16:53.119Z,29.02
2024-05-09T17:19:23.732Z,28.88
2024-05-09T17:21:54.535Z,29.05
2024-05-09T17:24:24.925Z,29.30
2024-05-09T17:26:55.372Z,31.10
2024-05-09T17:29:25.980Z,34.33
2024-05-09T17:31:57.199Z,33.55
2024-05-09T17:34:28.331Z,33.60
2024-05-09T17:36:59.762Z,37.20
2024-05-09T17:39:30.302Z,35.63
2024-05-09T17:42:02.493Z,34.25
2024-05-09T17:44:32.842Z,35.13
2024-05-09T17:47:04.168Z,35.47
2024-05-09T17:49:34.683Z,36.85
2024-05-09T17:52:05.225Z,38.10
2024-05-09T17:54:35.630Z,35.40
2024-05-09T17:57:06.087Z,40.10
2024-05-09T17:59:36.443Z,37.42
2024-05-09T18:02:07.028Z,37.63
2024-05-09T18:04:37.538Z,38.92
2024-05-09T18:07:08.243Z,43.65
2024-05-09T18:09:38.727Z,44.08
2024-05-09T18:12:09.862Z,40.20
2024-05-09T18:14:40.775Z,42.22
2024-05-09T18:17:15.504Z,41.38
2024-05-09T18:19:46.019Z,42.42
2024-05-09T18:22:16.567Z,44.13
2024-05-09T18:24:47.188Z,41.97
2024-05-09T18:27:17.677Z,42.50
2024-05-09T18:29:48.591Z,42.05
2024-05-09T18:32:19.052Z,45.55
2024-05-09T18:34:50.384Z,45.22
2024-05-09T18:37:20.856Z,48.47
2024-05-09T18:39:52.135Z,44.53
2024-05-09T18:42:22.528Z,42.03
2024-05-09T18:44:56.947Z,41.17
2024-05-09T18:47:27.532Z,43.60
2024-05-09T18:49:58.850Z,41.03
2024-05-09T18:52:29.249Z,41.67
2024-05-09T18:55:01.945Z,39.78
2024-05-09T18:57:32.532Z,39.05
2024-05-09T19:00:04.209Z,40.53
2024-05-09T19:02:36.012Z,39.33
2024-05-09T19:05:06.888Z,36.90
2024-05-09T19:07:37.447Z,42.53
2024-05-09T19:10:21.514Z,40.60
2024-05-09T19:12:53.224Z,39.38
2024-05-09T19:15:24.621Z,40.45
2024-05-09T19:17:58.089Z,38.75
2024-05-09T19:20:33.658Z,39.92
2024-05-09T19:23:06.773Z,40.63
2024-05-09T19:25:38.125Z,36.95
2024-05-09T19:28:09.018Z,35.92
2024-05-09T19:30:42.374Z,35.78
2024-05-09T19:33:14.855Z,28.77
2024-05-09T19:35:45.999Z,28.77
2024-05-09T19:38:16.477Z,28.13
2024-05-09T19:40:47.227Z,28.90
2024-05-09T19:43:18.261Z,29.33
2024-05-09T19:45:49.193Z,28.08
2024-05-09T19:48:19.916Z,28.50
2024-05-09T19:50:53.102Z,25.15
2024-05-09T19:53:23.807Z,29.38
2024-05-09T19:55:54.225Z,30.42
2024-05-09T19:58:24.784Z,31.35
2024-05-09T20:00:55.321Z,25.45
2024-05-09T20:03:26.726Z,26.73
2024-05-09T20:05:57.106Z,21.77
2024-05-09T20:08:27.498Z,18.65
2024-05-09T20:10:58.730Z,13.88
2024-05-09T20:13:29.194Z,11.38
2024-05-09T20:16:03.399Z,12.98
2024-05-09T20:18:39.015Z,9.90
2024-05-09T20:21:09.625Z,10.35
2024-05-09T20:23:40.007Z,10.35
2024-05-09T20:26:11.194Z,11.65
2024-05-09T20:28:42.441Z,11.88
2024-05-09T20:31:12.866Z,12.50
2024-05-09T20:33:43.395Z,11.25
2024-05-09T20:36:13.871Z,13.00
2024-05-09T20:38:44.472Z,11.32
2024-05-09T20:41:14.871Z,13.05
2024-05-09T20:43:51.894Z,13.25
2024-05-09T20:46:22.405Z,13.80
2024-05-09T20:48:53.747Z,12.50
2024-05-09T20:51:24.214Z,14.50
2024-05-09T20:53:55.363Z,15.68
2024-05-09T20:56:26.136Z,15.48
2024-05-09T20:58:57.296Z,16.00
2024-05-09T21:01:27.855Z,15.15
2024-05-09T21:03:58.512Z,15.90
2024-05-09T21:06:28.983Z,18.10
2024-05-09T21:09:01.462Z,17.25
2024-05-09T21:11:31.929Z,15.82
2024-05-09T21:14:02.958Z,18.77
2024-05-09T21:16:36.140Z,17.67
2024-05-09T21:19:06.702Z,17.90
2024-05-09T21:21:44.140Z,20.02
2024-05-09T21:24:14.758Z,21.20
2024-05-09T21:26:51.594Z,23.83
2024-05-09T21:29:22.891Z,23.90
2024-05-09T21:31:53.367Z,31.08
2024-05-09T21:34:24.772Z,33.10
2024-05-09T21:36:55.269Z,34.50
2024-05-09T21:39:28.477Z,31.52
2024-05-09T21:42:03.705Z,28.38
2024-05-09T21:44:35.061Z,28.73
2024-05-09T21:47:05.716Z,24.50
2024-05-09T21:49:36.340Z,26.52
2024-05-09T21:52:07.190Z,25.98
2024-05-09T21:54:37.805Z,26.92
2024-05-09T21:57:09.906Z,27.52
2024-05-09T21:59:42.471Z,29.67
2024-05-09T22:02:14.771Z,32.72
2024-05-09T22:04:45.429Z,32.90
2024-05-09T22:07:16.160Z,32.50
2024-05-09T22:09:51.994Z,32.08
2024-05-09T22:12:22.421Z,28.77
2024-05-09T22:14:55.910Z,29.92
2024-05-09T22:17:28.513Z,30.48
2024-05-09T22:19:59.110Z,28.25
2024-05-09T22:22:29.499Z,29.77
2024-05-09T22:25:00.007Z,27.80
2024-05-09T22:27:30.584Z,28.58
2024-05-09T22:30:05.218Z,29.38
2024-05-09T22:32:37.426Z,28.17
2024-05-09T22:35:10.885Z,26.65
2024-05-09T22:37:41.400Z,31.08
2024-05-09T22:40:23.861Z,27.65
2024-05-09T22:42:59.578Z,29.23
2024-05-09T22:45:30.797Z,27.58
2024-05-09T22:48:01.528Z,28.02
2024-05-09T22:50:34.022Z,27.67
2024-05-09T22:53:04.588Z,28.80
2024-05-09T22:55:35.272Z,30.05
2024-05-09T22:58:05.722Z,31.73
2024-05-09T23:00:37.380Z,31.88
2024-05-09T23:03:08.373Z,29.23
2024-05-09T23:05:39.693Z,29.35
2024-05-09T23:08:10.871Z,29.95
2024-05-09T23:10:42.992Z,29.75
2024-05-09T23:13:13.503Z,30.10
2024-05-09T23:15:44.512Z,31.38
2024-05-09T23:18:15.408Z,31.23
2024-05-09T23:20:46.939Z,32.80
2024-05-09T23:23:17.399Z,32.72
2024-05-09T23:25:49.510Z,34.22
2024-05-09T23:28:19.919Z,30.65
2024-05-09T23:30:53.654Z,33.45
2024-05-09T23:33:27.883Z,31.15
2024-05-09T23:36:03.815Z,29.80
2024-05-09T23:38:34.267Z,30.65
2024-05-09T23:41:04.816Z,28.23
2024-05-09T23:43:35.660Z,23.85
2024-05-09T23:46:06.355Z,24.30
2024-05-09T23:48:37.100Z,23.70
2024-05-09T23:51:07.763Z,23.42
2024-05-09T23:53:38.168Z,22.58
2024-05-09T23:56:09.210Z,23.58
2024-05-09T23:58:39.571Z,29.52
